Timeline UpdatesTrip UpdatesNews PostsPvt PostsTravel TipsAdmin PostsConv PostsFollowed PostsChat RequestsBlog PostsPNR Posts

Disclaimer
Search
 
 
Wed Sep 3, 2014 07:46:33 ISTHomeTrainsΣChainsAtlasPNRForumGalleryNewsFAQTripsMembersLoginFeedback
No Recent News for this Train
Other Trains in the News **new
Latest...
.
Sun Jun 15, 2014 (06:39PM)
⇐ Return Journey: Train# 13351

13352/Alappuzha-Dhanbad Express

Time-Table HAS CHANGED.
Yesterday (12:27AM)
Change Departure Station:
Change Arrival Station:
Post a Train Travel TipPost a Train Travel Tip **new
Post a Comment/Question/Picture/VideoPost a Comment/Question/Picture/Video
Pantry/Catering
✓ Pantry Car Avbl
✓ Catering Avbl
Average!! Pantry goes with Dhanbad rake; Additional:the food was well...
Read more...
below average, not only the snacks and tea/coffee but also the meals were of poor quality.
Loco/Rake Reversals
MAS/Chennai Central (12); SRR/Shoranur Junction (7); VSKP/Visakhapatnam Junction (8);
RSA - Rake Sharing
Rake/Coach Composition
LOCO-SLR-GEN-S1-S2-S3-S4-S5-S6-S7-S8-PC-A1-B1-B2*-A2*-ST1*-ST2*-ST3*-ST4*-ST5*-GEN*-SLR*; * coaches indicate slip coaches to TATA Detached at ROU. De-reserved Coaches S2, S4, ST1, ST3 from ALLP - MAS.
Loco
Official Loco:- ALLP - MAS:- WAP-4/WAM-1 MAS - VSKP:- WAM-4/WAP-1 VSKP - ROU:-...
Read more...
WDM-3A/WDG-3A ROU - DHN :- WAM-4
News    PNR    Forum    Time-Table    Availability    Fare Chart    Map    Arr/Dep History    Trips    Gallery    ΣChains    X/O    Timeline    
Travel Time: 55h 15m    93 halts    Distance: 2533 km    Avg Speed: 45 km/hr
Type: Mail/Express
Zone: ECR/East Central
Departs @ 06:00
Platform# 1
SMTWTFS
Alappuzha/ALLP 
Arrives @ 13:15 +2 nights
Platform# 5
SMTWTFS
Dhanbad Junction/DHN 

93 halts. 419 intermediate Stations between Alappuzha and Dhanbad Junction

Show ALL intermediate Stations  Show Old Time-Table

#CodeStation NameX/OArrivesAvgDepartsAvgHaltPFDay#KmSpeedElevZoneAddress
1ALLP»Alappuzha (3)»  -06:00-110.0728mSRPh:0477-2253965, Kerala
2MAKMMararikkulam (1)  06:11-06:12-1m1113.19412mSRMararikulam, Kerala
3SRTLCherthala (3)  06:19-06:20-1m1124.1857mSRPh: 0478- 2812500, Kerala
4TUVRTuravur (2)X  06:27-06:28-1m1134.1335mSRThuravoor, Kerala
5ERSErnakulam Junction (South) (6)  07:10-07:15-5m1157.5533mSRErnakulam 682016, Kerala
6AWYAluva (3)X  07:37-07:39-2m3176.97612mSRPh: 0484-2624141, Kerala
7TCRThrissur (4)X  08:22-08:25-3m21131.5266mSRThrissur Tel: 0487 2423150, Kerala
8SRRShoranur Junction (7)X09:40-09:50-10m--1164.55426mSRShoranur ph.no 0466-2222913, Kerala
9PGTPalakkad Junction (4)X  10:40-10:45-5m--1209.14784mSRPalghat Tel: 0491 2555231, Kerala
10CBECoimbatore Main Junction (6)X  11:55-12:00-5m--1264.470416mSRCoimbatore 641001, Tamil Nadu
11TUPTiruppur (2)  12:43-12:45-2m21314.946305mSRTiruppur. Ph:0421-2200450, Tamil Nadu
12EDErode Junction (4)  13:50-14:00-10m11365.167175mSRErode ph.no: 0424-2256111, Tamil Nadu
13SASalem Junction (6)X  14:55-15:00-5m41426.467283mSRSalem, Tamil Nadu
14BQIBommidiX  15:39-15:40-1m--1469.7820mSRBommidi ph.no. 04346-244441, Tamil Nadu
15SLYSamalpatti  16:14-16:15-1m--1516.358388mSRSamalpatti ph.no. 04341-245601, Tamil Nadu
16TPTTirupattur (2)  16:39-16:40-1m--1539.521392mSRTirupattur ph.no. 04179-220062, Tamil Nadu
17JTJJolarpettai Junction (5)X  17:00-17:05-5m41546.649405mSRJolarpettai, Tamil Nadu
18VNVaniyambadiX  17:24-17:25-1m21562.267357mSRVaniyambadi, Tamil Nadu
19GYMGudiyattam (3)  18:04-18:05-1m21606.059269mSRVellore, Tamil Nadu
20KPDKatpadi Junction (5)X  18:30-18:35-5m21630.552213mSRVellore 632007, Tamil Nadu
21MCNMukundarayapuram (2)  18:54-18:55-1m--1647.066198mSRSipcot Ranipet, Tamil Nadu
22AJJArakkonam Junction (8)X  19:35-19:40-5m21691.34191mSRArakkonam, Tamil Nadu
23TRLTiruvallur (6)  20:19-20:20-1m11718.36450mSRTiruvallur, Tamil Nadu
24PERPerambur (4)X  20:54-20:55-1m11754.547mSRChennai-600011 Phone: 044-25510359, Tamil Nadu
25MASChennai Central (12)22:25-23:00-35m101760.0729mSRChennai 600003, Tamil Nadu
26SPESullurupeta (3)  00:09-00:10-1m12842.4689mSR524121., Andhra Pradesh
27NYPNayadupeta (3)XO  00:34-00:35-1m12869.61733mSRNayudupeta, Andhra Pradesh
28GDRGudur Junction (3)X  02:15-02:17-2m22897.39219mSCRGudur, Andhra Pradesh
29NLRNellore (4)  02:42-02:43-1m22935.87921mSCRNellore, Andhra Pradesh
30BTTRBitragunta (2)  03:09-03:10-1m12970.15815mSCRBitragunta, Andhra Pradesh
31KVZKavali (4)X  03:27-03:28-1m32986.69121mSCRKavali, Andhra Pradesh
32SKMSingarayakonda (2)X  03:53-03:54-1m121024.35326mSCRSingarayakonda, Andhra Pradesh
33OGLOngole (3)X  04:26-04:27-1m121052.67612mSCROngole, Andhra Pradesh
34CJMChinnaganjam (3)X  04:50-04:51-1m--21081.6819mSCRChinna Ganjam, Andhra Pradesh
35CLXChirala (4)  05:06-05:07-1m--21101.9758mSCRChirala, Andhra Pradesh
36BPPBapatla (3)  05:19-05:20-1m--21117.06910mSCRBapatla, Andhra Pradesh
37NDONidubrolu (3)X  05:38-05:39-1m--21137.5839mSCRNidubrolu, Andhra Pradesh
38TELTenali Junction (5)X  05:55-05:56-1m421159.62516mSCRTel: 08644-227834, Andhra Pradesh
39BZAVijayawada Junction (10)X  07:10-07:30-20m321190.87724mSCRVijayawada 520001, Andhra Pradesh
40EEEluru (3)  08:16-08:17-1m221250.29019mSCREluru Ph.no. 08812 226401., Andhra Pradesh
41TDDTadepalligudem (3)X  08:49-08:50-1m221298.04418mSCRTadepalligudem, Andhra Pradesh
42NDDNidadavolu Junction (3)  09:17-09:18-1m--21318.03620mSCRNidadavolu jtn ph.no. 08813-210325, Andhra Pradesh
43KVRKovvur (3)  09:42-09:43-1m--21332.32125mSCRWest Godavari, Andhra Pradesh
44GVNGodavariX  09:57-09:58-1m--21337.11524mSCRRajahmundry, Andhra Pradesh
45RJYRajahmundry (3)X  10:10-10:15-5m321340.17023mSCRRajahmundry ph.no. 0883-2420541, Andhra Pradesh
46DWPDwarapudi (3)  10:32-10:33-1m--21360.04520mSCREast Godavari District, Andhra Pradesh
47APTAnaparti (3)  10:38-10:39-1m--21363.87621mSCREast Godavari District, Andhra Pradesh
48SLOSamalkot Junction (3)  11:00-11:01-1m121390.36018mSCRSamalkot, Andhra Pradesh
49PAPPithapuram (2)  11:13-11:14-1m--21402.45722mSCREast Godavari District, Andhra Pradesh
50GLPGollaprolu  11:20-11:21-1m--21408.18219mSCRGollaprollu, Andhra Pradesh
51ANVAnnavaram (3)X  11:35-11:36-1m321427.26727mSCREast Godavari District, Andhra Pradesh
52TUNITuni (2)X  11:51-11:52-1m221443.86124mSCRTuni ph.no. 08854-252172, Andhra Pradesh
53NRPNarsipatnam Road (2)  12:14-12:15-1m--21466.16718mSCRVisakhapatnam District, Andhra Pradesh
54YLMElamanchili (2)  12:31-12:32-1m--21483.95323mSCRVisakhapatnam District, Andhra Pradesh
55AKPAnakapalle (3)X  12:59-13:00-1m--21507.61130mSCRAnakapalle ph.no . 08924-221698, Andhra Pradesh
56DVDDuvvada (4)X  14:24-14:25-1m--21523.62046mECoRVishakhapatnam District, Andhra Pradesh
57VSKPVisakhapatnam Junction (8)X15:15-15:35-20m321539.92911mECoRVishakhapatnam 530001, Andhra Pradesh
58SCMSimhachalam (2)  15:52-15:53-1m--21548.06827mECoRVisakhapatnam, Andhra Pradesh
59KTVKottavalasa Junction (5)X  16:09-16:10-1m--21566.16658mECoRVizianagaram District, Andhra Pradesh
60VZMVizianagaram Junction (5)X  16:42-16:47-5m--21601.17263mECoRVizianagaram, Andhra Pradesh
61VBLBobbili Junction (2)X  17:32-17:35-3m121655.465137mECoRBobbili, Andhra Pradesh
62PVPParvatipuram (3)  17:57-17:58-1m--21679.220122mECoRParvatipuram, Andhra Pradesh
63PVPTParvatipuram Town  18:03-18:04-1m--21680.959121mECoRParvatipuram, Andhra Pradesh
64RGDARayagada (3)X  18:50-19:05-15m--21726.235229mECoRRayagada ph.no 06856-222407, Odisha
65SPRDSingapuram Road (2)  19:21-19:22-1m--21735.447248mECoRJaykaypur, Odisha
66THVTherubaliX  19:34-19:35-1m--21744.860270mECoRRayagada, Odisha
67MNGDMunigudaX  20:11-20:12-1m--21780.868335mECoRMuniguda, Odisha
68AMBAmbodala  20:34-20:35-1m--21805.868374mECoRState Highway 6, Odisha
69NRLRNorla Road  20:57-20:58-1m--21830.844247mECoRKalahandi, Odisha
70RPRDRupra Road  21:07-21:08-1m--21837.461233mECoRKalahandi, Odisha
71KSNGKesinga (1)  21:24-21:25-1m121853.633183mECoRKesinga, Odisha
72TIGTitlagarh Junction (3)  21:50-22:00-10m321867.657212mECoRTitlagarh, Odisha
73BUDMBadmal  22:21-22:22-1m--21887.569209mECoRDumerbahal Rd, Odisha
74BLGRBalangir (3)X  23:00-23:05-5m--21930.965210mECoRBolangir, Odisha
75BRPLBarpali  23:58-23:59-1m--21988.072178mECoRBarpali, Odisha
76BRGABargarh Road (3)X  00:15-00:20-5m--32007.245185mECoRBargarh, Odisha
77ATSAttabira  00:44-00:45-1m--32025.323164mECoRBargarh, Odisha
78SBPSambalpur Junction (3)X  01:50-02:00-10m--32049.715159mECoRSambalpur, Odisha
79SBPDSambalpur Road  02:06-02:07-1m--32051.252161mECoRSambalpur, Odisha
80RGLRengali  02:31-02:32-1m--32072.027208mECoRState Highway 10, Odisha
81JSGJharsuguda Junction (5)  03:30-03:40-10m--32098.478236mSERJharsuguda, Odisha
82BMBBamra (3)  04:08-04:09-1m--32134.980259mSERBamra PH : 06642-229268, Odisha
83GPRaj Gangpur (3)X  04:35-04:36-1m232169.553237mSERRaj Ganpur, Odisha
84ROURourkela Junction (5)X05:10-05:30-20m--32199.342198mSERRourkela, Odisha
85NXNNuagaon  06:09-06:10-1m--32226.557218mSERKeonjhar, Odisha
86BANOBano  06:54-06:55-1m--32268.667452mSERDist. Gumla, Jharkhand
87HTEHatia (3)  08:20-08:25-5m332363.628657mSER2788599, Jharkhand
88RNCRanchi Junction (6)  08:40-08:55-15m132370.649632mSERDiv HQ SER, Jharkhand
89MURIMuri Junction (3)X  10:08-10:10-2m132430.240254mSER06522-222444, Jharkhand
90JAAJhalida (3)  10:29-10:30-1m--32443.058297mSERJhalida, West Bengal
91PNWPundhag (3)  10:54-10:55-1m132466.250291mSERDist - Puruliya -723215, West Bengal
92BKSCBokaro Steel City (3)  11:15-11:25-10m132482.931245mSER06542-253861, Jharkhand
93CRPChandrapura Junction (2)X  11:55-12:00-5m132498.533227mECR06549-242555, Jharkhand
94KTHKatrasgarh (1)  12:37-12:39-2m132518.923198mECRKatrasgarh, Jharkhand
95DHN•Dhanbad Junction (8)•  13:15--532532.7-6235mECR2319801. Div. HQ ECR, Jharkhand
96BNDMBondamunda (2) new halt!!  06:23-06:24-1m--32203.069213mSERRourkela, Odisha
97JRAJaraikela new halt!!X  06:43-06:44-1m--32224.962215mSERJaraikela Station, Jharkhand
98MOUManoharpur new halt!!  06:55-06:56-1m--32236.368228mSERManoharpur, Jharkhand
99CKPChakradharpur (3) new halt!!X  07:50-07:55-5m--32297.580235mSERChakradharpur (West Singhbhum), Jharkhand
100RKSNRajkharsawan Junction (3) new halt!!  08:10-08:11-1m--32317.661189mSERSaraikela Kharswan District, Jharkhand
101SINISini Junction (3) new halt!!  08:26-08:27-1m--32332.867182mSERNational Highway 33, Jharkhand
102ADTPAdityapur (3) new halt!!  08:47-08:48-1m--32355.113152mSERJamshedpur, Jharkhand
103TATATatanagar Junction (5) new halt!!  09:10----32359.8-164mSER91-657-2423026, Jharkhand
Scroll to Top
Scroll to Bottom